Aviation Digital Data Service (ADDS)

Output produced by METARs form (1058 UTC 19 February 2019)
found at http://www.aviationweather.gov/metar/data/
 
METAR text: EBBL 191025Z 25012KT 9999 SCT025 10/04 Q1020 BLU BLU
Conditions at: EBBL (KLEINE-BROGEL(BA, BE) observed 1025 UTC 19 February 2019
Temperature: 10.0°C (50°F)
Dewpoint: 4.0°C (39°F) [RH = 66%]
Pressure (altimeter): 30.12 inches Hg (1020.0 mb)
Winds: from the WSW (250 degrees) at 14 MPH (12 knots; 6.2 m/s)
Visibility: 6 or more miles (10+ km)
Ceiling: at least 12,000 feet AGL
Clouds: scattered clouds at 2500 feet AGL
Weather: no significant weather observed at this time

METAR text: EBBL 190955Z 24013KT 9999 FEW020 09/04 Q1020 BLU BLU
Conditions at: EBBL (KLEINE-BROGEL(BA, BE) observed 0955 UTC 19 February 2019
Temperature: 9.0°C (48°F)
Dewpoint: 4.0°C (39°F) [RH = 71%]
Pressure (altimeter): 30.12 inches Hg (1020.0 mb)
Winds: from the WSW (240 degrees) at 15 MPH (13 knots; 6.7 m/s)
Visibility: 6 or more miles (10+ km)
Ceiling: at least 12,000 feet AGL
Clouds: few clouds at 2000 feet AGL
Weather: no significant weather observed at this time

METAR text: EBBL 190944Z 23011KT 9999 FEW020 09/04 Q1020 BLU BLU
Conditions at: EBBL (KLEINE-BROGEL(BA, BE) observed 0944 UTC 19 February 2019
Temperature: 9.0°C (48°F)
Dewpoint: 4.0°C (39°F) [RH = 71%]
Pressure (altimeter): 30.12 inches Hg (1020.0 mb)
Winds: from the SW (230 degrees) at 13 MPH (11 knots; 5.7 m/s)
Visibility: 6 or more miles (10+ km)
Ceiling: at least 12,000 feet AGL
Clouds: few clouds at 2000 feet AGL
Weather: no significant weather observed at this time

METAR text: EBBL 190925Z 24012KT 9999 SCT015 09/05 Q1020 WHT WHT BECMG BLU
Conditions at: EBBL (KLEINE-BROGEL(BA, BE) observed 0925 UTC 19 February 2019
Temperature: 9.0°C (48°F)
Dewpoint: 5.0°C (41°F) [RH = 76%]
Pressure (altimeter): 30.12 inches Hg (1020.0 mb)
Winds: from the WSW (240 degrees) at 14 MPH (12 knots; 6.2 m/s)
Visibility: 6 or more miles (10+ km)
Ceiling: at least 12,000 feet AGL
Clouds: scattered clouds at 1500 feet AGL
Weather: no significant weather observed at this time

METAR text: EBBL 190911Z 24012KT 9999 SCT015 08/05 Q1020 WHT WHT BECMG BLU
Conditions at: EBBL (KLEINE-BROGEL(BA, BE) observed 0911 UTC 19 February 2019
Temperature: 8.0°C (46°F)
Dewpoint: 5.0°C (41°F) [RH = 81%]
Pressure (altimeter): 30.12 inches Hg (1020.0 mb)
Winds: from the WSW (240 degrees) at 14 MPH (12 knots; 6.2 m/s)
Visibility: 6 or more miles (10+ km)
Ceiling: at least 12,000 feet AGL
Clouds: scattered clouds at 1500 feet AGL
Weather: no significant weather observed at this time

METAR text: EBBL 190855Z 24011KT 9999 SCT013 08/05 Q1020 GRN BLU TEMPO GRN
Conditions at: EBBL (KLEINE-BROGEL(BA, BE) observed 0855 UTC 19 February 2019
Temperature: 8.0°C (46°F)
Dewpoint: 5.0°C (41°F) [RH = 81%]
Pressure (altimeter): 30.12 inches Hg (1020.0 mb)
Winds: from the WSW (240 degrees) at 13 MPH (11 knots; 5.7 m/s)
Visibility: 6 or more miles (10+ km)
Ceiling: at least 12,000 feet AGL
Clouds: scattered clouds at 1300 feet AGL
Weather: no significant weather observed at this time

METAR text: EBBL 190825Z 23010KT 9999 SCT013 07/05 Q1019 GRN BLU TEMPO GRN
Conditions at: EBBL (KLEINE-BROGEL(BA, BE) observed 0825 UTC 19 February 2019
Temperature: 7.0°C (45°F)
Dewpoint: 5.0°C (41°F) [RH = 87%]
Pressure (altimeter): 30.09 inches Hg (1019.0 mb)
Winds: from the SW (230 degrees) at 12 MPH (10 knots; 5.1 m/s)
Visibility: 6 or more miles (10+ km)
Ceiling: at least 12,000 feet AGL
Clouds: scattered clouds at 1300 feet AGL
Weather: no significant weather observed at this time

METAR text: EBBL 190755Z 22007KT 9999 SCT013 07/05 Q1019 GRN BLU TEMPO GRN
Conditions at: EBBL (KLEINE-BROGEL(BA, BE) observed 0755 UTC 19 February 2019
Temperature: 7.0°C (45°F)
Dewpoint: 5.0°C (41°F) [RH = 87%]
Pressure (altimeter): 30.09 inches Hg (1019.0 mb)
Winds: from the SW (220 degrees) at 8 MPH (7 knots; 3.6 m/s)
Visibility: 6 or more miles (10+ km)
Ceiling: at least 12,000 feet AGL
Clouds: scattered clouds at 1300 feet AGL
Weather: no significant weather observed at this time

METAR text: EBBL 190752Z 22006KT 9999 SCT013 06/05 Q1019 GRN BLU TEMPO GRN
Conditions at: EBBL (KLEINE-BROGEL(BA, BE) observed 0752 UTC 19 February 2019
Temperature: 6.0°C (43°F)
Dewpoint: 5.0°C (41°F) [RH = 93%]
Pressure (altimeter): 30.09 inches Hg (1019.0 mb)
Winds: from the SW (220 degrees) at 7 MPH (6 knots; 3.1 m/s)
Visibility: 6 or more miles (10+ km)
Ceiling: at least 12,000 feet AGL
Clouds: scattered clouds at 1300 feet AGL
Weather: no significant weather observed at this time

METAR text: EBBL 190737Z 22006KT 9999 FEW011 06/05 Q1019 BLU BLU
Conditions at: EBBL (KLEINE-BROGEL(BA, BE) observed 0737 UTC 19 February 2019
Temperature: 6.0°C (43°F)
Dewpoint: 5.0°C (41°F) [RH = 93%]
Pressure (altimeter): 30.09 inches Hg (1019.0 mb)
Winds: from the SW (220 degrees) at 7 MPH (6 knots; 3.1 m/s)
Visibility: 6 or more miles (10+ km)
Ceiling: at least 12,000 feet AGL
Clouds: few clouds at 1100 feet AGL
Weather: no significant weather observed at this time

METAR text: EBBL 190725Z 23006KT 9999 SCT011 BKN150 06/04 Q1019 GRN GRN BECMG WHT
Conditions at: EBBL (KLEINE-BROGEL(BA, BE) observed 0725 UTC 19 February 2019
Temperature: 6.0°C (43°F)
Dewpoint: 4.0°C (39°F) [RH = 87%]
Pressure (altimeter): 30.09 inches Hg (1019.0 mb)
Winds: from the SW (230 degrees) at 7 MPH (6 knots; 3.1 m/s)
Visibility: 6 or more miles (10+ km)
Ceiling: 15000 feet AGL
Clouds: scattered clouds at 1100 feet AGL
broken clouds at 15000 feet AGL
Weather: no significant weather observed at this time

METAR text: EBBL 190655Z 23007KT 9999 SCT011 BKN150 06/05 Q1019 GRN GRN BECMG WHT
Conditions at: EBBL (KLEINE-BROGEL(BA, BE) observed 0655 UTC 19 February 2019
Temperature: 6.0°C (43°F)
Dewpoint: 5.0°C (41°F) [RH = 93%]
Pressure (altimeter): 30.09 inches Hg (1019.0 mb)
Winds: from the SW (230 degrees) at 8 MPH (7 knots; 3.6 m/s)
Visibility: 6 or more miles (10+ km)
Ceiling: 15000 feet AGL
Clouds: scattered clouds at 1100 feet AGL
broken clouds at 15000 feet AGL
Weather: no significant weather observed at this time

METAR text: EBBL 190645Z 23008KT 9999 SCT011 BKN150 06/05 Q1018 GRN GRN BECMG WHT
Conditions at: EBBL (KLEINE-BROGEL(BA, BE) observed 0645 UTC 19 February 2019
Temperature: 6.0°C (43°F)
Dewpoint: 5.0°C (41°F) [RH = 93%]
Pressure (altimeter): 30.06 inches Hg (1018.0 mb)
Winds: from the SW (230 degrees) at 9 MPH (8 knots; 4.1 m/s)
Visibility: 6 or more miles (10+ km)
Ceiling: 15000 feet AGL
Clouds: scattered clouds at 1100 feet AGL
broken clouds at 15000 feet AGL
Weather: no significant weather observed at this time

METAR text: EBBL 190644Z 23007KT 9999 SCT011 BKN150 06/05 Q1018 GRN BLU TEMPO GRN
Conditions at: EBBL (KLEINE-BROGEL(BA, BE) observed 0644 UTC 19 February 2019
Temperature: 6.0°C (43°F)
Dewpoint: 5.0°C (41°F) [RH = 93%]
Pressure (altimeter): 30.06 inches Hg (1018.0 mb)
Winds: from the SW (230 degrees) at 8 MPH (7 knots; 3.6 m/s)
Visibility: 6 or more miles (10+ km)
Ceiling: 15000 feet AGL
Clouds: scattered clouds at 1100 feet AGL
broken clouds at 15000 feet AGL
Weather: no significant weather observed at this time

METAR text: EBBL 190625Z 23007KT 9999 FEW011 BKN150 06/05 Q1018 BLU BLU TEMPO GRN
Conditions at: EBBL (KLEINE-BROGEL(BA, BE) observed 0625 UTC 19 February 2019
Temperature: 6.0°C (43°F)
Dewpoint: 5.0°C (41°F) [RH = 93%]
Pressure (altimeter): 30.06 inches Hg (1018.0 mb)
Winds: from the SW (230 degrees) at 8 MPH (7 knots; 3.6 m/s)
Visibility: 6 or more miles (10+ km)
Ceiling: 15000 feet AGL
Clouds: few clouds at 1100 feet AGL
broken clouds at 15000 feet AGL
Weather: no significant weather observed at this time

METAR text: EBBL 190555Z 23008KT 9999 FEW011 BKN150 07/05 Q1018 BLU BLU TEMPO GRN
Conditions at: EBBL (KLEINE-BROGEL(BA, BE) observed 0555 UTC 19 February 2019
Temperature: 7.0°C (45°F)
Dewpoint: 5.0°C (41°F) [RH = 87%]
Pressure (altimeter): 30.06 inches Hg (1018.0 mb)
Winds: from the SW (230 degrees) at 9 MPH (8 knots; 4.1 m/s)
Visibility: 6 or more miles (10+ km)
Ceiling: 15000 feet AGL
Clouds: few clouds at 1100 feet AGL
broken clouds at 15000 feet AGL
Weather: no significant weather observed at this time

METAR text: EBBL 190546Z 23009KT 9999 FEW011 BKN130 07/05 Q1018 BLU BLU TEMPO GRN
Conditions at: EBBL (KLEINE-BROGEL(BA, BE) observed 0546 UTC 19 February 2019
Temperature: 7.0°C (45°F)
Dewpoint: 5.0°C (41°F) [RH = 87%]
Pressure (altimeter): 30.06 inches Hg (1018.0 mb)
Winds: from the SW (230 degrees) at 10 MPH (9 knots; 4.6 m/s)
Visibility: 6 or more miles (10+ km)
Ceiling: 13000 feet AGL
Clouds: few clouds at 1100 feet AGL
broken clouds at 13000 feet AGL
Weather: no significant weather observed at this time

METAR text: EBBL 190525Z 23007KT 9999 OVC120 07/05 Q1018 BLU
Conditions at: EBBL (KLEINE-BROGEL(BA, BE) observed 0525 UTC 19 February 2019
Temperature: 7.0°C (45°F)
Dewpoint: 5.0°C (41°F) [RH = 87%]
Pressure (altimeter): 30.06 inches Hg (1018.0 mb)
Winds: from the SW (230 degrees) at 8 MPH (7 knots; 3.6 m/s)
Visibility: 6 or more miles (10+ km)
Ceiling: 12000 feet AGL
Clouds: overcast cloud deck at 12000 feet AGL
Weather: no significant weather observed at this time

METAR text: EBBL 190455Z AUTO 23009KT 9999 OVC110/// 07/05 Q1018 BLU
Conditions at: EBBL (KLEINE-BROGEL(BA, BE) observed 0455 UTC 19 February 2019
Temperature: 7.0°C (45°F)
Dewpoint: 5.0°C (41°F) [RH = 87%]
Pressure (altimeter): 30.06 inches Hg (1018.0 mb)
Winds: from the SW (230 degrees) at 10 MPH (9 knots; 4.6 m/s)
Visibility: 6 or more miles (10+ km)
Ceiling: 11000 feet AGL
Clouds: overcast cloud deck at 11000 feet AGL
Weather: no significant weather observed at this time

METAR text: EBBL 190425Z AUTO 24008KT 9999 FEW014/// BKN110/// 07/05 Q1017 BLU
Conditions at: EBBL (KLEINE-BROGEL(BA, BE) observed 0425 UTC 19 February 2019
Temperature: 7.0°C (45°F)
Dewpoint: 5.0°C (41°F) [RH = 87%]
Pressure (altimeter): 30.03 inches Hg (1017.0 mb)
Winds: from the WSW (240 degrees) at 9 MPH (8 knots; 4.1 m/s)
Visibility: 6 or more miles (10+ km)
Ceiling: 11000 feet AGL
Clouds: few clouds at 1400 feet AGL
broken clouds at 11000 feet AGL
Weather: no significant weather observed at this time

METAR text: EBBL 190419Z AUTO 24008KT 9999 FEW014/// BKN110/// 07/05 Q1017 BLU
Conditions at: EBBL (KLEINE-BROGEL(BA, BE) observed 0419 UTC 19 February 2019
Temperature: 7.0°C (45°F)
Dewpoint: 5.0°C (41°F) [RH = 87%]
Pressure (altimeter): 30.03 inches Hg (1017.0 mb)
Winds: from the WSW (240 degrees) at 9 MPH (8 knots; 4.1 m/s)
Visibility: 6 or more miles (10+ km)
Ceiling: 11000 feet AGL
Clouds: few clouds at 1400 feet AGL
broken clouds at 11000 feet AGL
Weather: no significant weather observed at this time

METAR text: EBBL 190355Z AUTO 24008KT 9999 SCT014/// BKN096/// 08/05 Q1017 GRN
Conditions at: EBBL (KLEINE-BROGEL(BA, BE) observed 0355 UTC 19 February 2019
Temperature: 8.0°C (46°F)
Dewpoint: 5.0°C (41°F) [RH = 81%]
Pressure (altimeter): 30.03 inches Hg (1017.0 mb)
Winds: from the WSW (240 degrees) at 9 MPH (8 knots; 4.1 m/s)
Visibility: 6 or more miles (10+ km)
Ceiling: 9600 feet AGL
Clouds: scattered clouds at 1400 feet AGL
broken clouds at 9600 feet AGL
Weather: no significant weather observed at this time

METAR text: EBBL 190333Z AUTO 24008KT 9999 BKN014/// BKN096/// 08/05 Q1017 GRN
Conditions at: EBBL (KLEINE-BROGEL(BA, BE) observed 0333 UTC 19 February 2019
Temperature: 8.0°C (46°F)
Dewpoint: 5.0°C (41°F) [RH = 81%]
Pressure (altimeter): 30.03 inches Hg (1017.0 mb)
Winds: from the WSW (240 degrees) at 9 MPH (8 knots; 4.1 m/s)
Visibility: 6 or more miles (10+ km)
Ceiling: 1400 feet AGL
Clouds: broken clouds at 1400 feet AGL
broken clouds at 9600 feet AGL
Weather: no significant weather observed at this time

METAR text: EBBL 190325Z AUTO 24007KT 9999 BKN015/// BKN095/// 08/05 Q1017 WHT
Conditions at: EBBL (KLEINE-BROGEL(BA, BE) observed 0325 UTC 19 February 2019
Temperature: 8.0°C (46°F)
Dewpoint: 5.0°C (41°F) [RH = 81%]
Pressure (altimeter): 30.03 inches Hg (1017.0 mb)
Winds: from the WSW (240 degrees) at 8 MPH (7 knots; 3.6 m/s)
Visibility: 6 or more miles (10+ km)
Ceiling: 1500 feet AGL
Clouds: broken clouds at 1500 feet AGL
broken clouds at 9500 feet AGL
Weather: no significant weather observed at this time

METAR text: EBBL 190303Z AUTO 23005KT 9999 SCT017/// OVC077/// 08/05 Q1017 WHT
Conditions at: EBBL (KLEINE-BROGEL(BA, BE) observed 0303 UTC 19 February 2019
Temperature: 8.0°C (46°F)
Dewpoint: 5.0°C (41°F) [RH = 81%]
Pressure (altimeter): 30.03 inches Hg (1017.0 mb)
Winds: from the SW (230 degrees) at 6 MPH (5 knots; 2.6 m/s)
Visibility: 6 or more miles (10+ km)
Ceiling: 7700 feet AGL
Clouds: scattered clouds at 1700 feet AGL
overcast cloud deck at 7700 feet AGL
Weather: no significant weather observed at this time

METAR text: EBBL 190255Z AUTO 23005KT 9999 FEW017/// OVC074/// 07/05 Q1017 BLU
Conditions at: EBBL (KLEINE-BROGEL(BA, BE) observed 0255 UTC 19 February 2019
Temperature: 7.0°C (45°F)
Dewpoint: 5.0°C (41°F) [RH = 87%]
Pressure (altimeter): 30.03 inches Hg (1017.0 mb)
Winds: from the SW (230 degrees) at 6 MPH (5 knots; 2.6 m/s)
Visibility: 6 or more miles (10+ km)
Ceiling: 7400 feet AGL
Clouds: few clouds at 1700 feet AGL
overcast cloud deck at 7400 feet AGL
Weather: no significant weather observed at this time

METAR text: EBBL 190225Z AUTO 23005KT 9000 SCT043/// OVC063/// 07/05 Q1017 BLU
Conditions at: EBBL (KLEINE-BROGEL(BA, BE) observed 0225 UTC 19 February 2019
Temperature: 7.0°C (45°F)
Dewpoint: 5.0°C (41°F) [RH = 87%]
Pressure (altimeter): 30.03 inches Hg (1017.0 mb)
Winds: from the SW (230 degrees) at 6 MPH (5 knots; 2.6 m/s)
Visibility: 6 miles ( 9 km)
Ceiling: 6300 feet AGL
Clouds: scattered clouds at 4300 feet AGL
overcast cloud deck at 6300 feet AGL
Weather: no significant weather observed at this time

METAR text: EBBL 190213Z AUTO 23004KT 9999 BKN029/// OVC062/// 07/05 Q1017 BLU
Conditions at: EBBL (KLEINE-BROGEL(BA, BE) observed 0213 UTC 19 February 2019
Temperature: 7.0°C (45°F)
Dewpoint: 5.0°C (41°F) [RH = 87%]
Pressure (altimeter): 30.03 inches Hg (1017.0 mb)
Winds: from the SW (230 degrees) at 5 MPH (4 knots; 2.1 m/s)
Visibility: 6 or more miles (10+ km)
Ceiling: 2900 feet AGL
Clouds: broken clouds at 2900 feet AGL
overcast cloud deck at 6200 feet AGL
Weather: no significant weather observed at this time

METAR text: EBBL 190155Z AUTO 25004KT 9999 -DZ OVC024/// 07/05 Q1017 WHT
Conditions at: EBBL (KLEINE-BROGEL(BA, BE) observed 0155 UTC 19 February 2019
Temperature: 7.0°C (45°F)
Dewpoint: 5.0°C (41°F) [RH = 87%]
Pressure (altimeter): 30.03 inches Hg (1017.0 mb)
Winds: from the WSW (250 degrees) at 5 MPH (4 knots; 2.1 m/s)
Visibility: 6 or more miles (10+ km)
Ceiling: 2400 feet AGL
Clouds: overcast cloud deck at 2400 feet AGL
Weather: -DZ  (light drizzle)

METAR text: EBBL 190125Z AUTO 27005KT 9999 -DZ OVC018/// 08/05 Q1017 WHT
Conditions at: EBBL (KLEINE-BROGEL(BA, BE) observed 0125 UTC 19 February 2019
Temperature: 8.0°C (46°F)
Dewpoint: 5.0°C (41°F) [RH = 81%]
Pressure (altimeter): 30.03 inches Hg (1017.0 mb)
Winds: from the W (270 degrees) at 6 MPH (5 knots; 2.6 m/s)
Visibility: 6 or more miles (10+ km)
Ceiling: 1800 feet AGL
Clouds: overcast cloud deck at 1800 feet AGL
Weather: -DZ  (light drizzle)

METAR text: EBBL 190055Z AUTO 27005KT 9999 OVC015/// 08/04 Q1017 WHT
Conditions at: EBBL (KLEINE-BROGEL(BA, BE) observed 0055 UTC 19 February 2019
Temperature: 8.0°C (46°F)
Dewpoint: 4.0°C (39°F) [RH = 76%]
Pressure (altimeter): 30.03 inches Hg (1017.0 mb)
Winds: from the W (270 degrees) at 6 MPH (5 knots; 2.6 m/s)
Visibility: 6 or more miles (10+ km)
Ceiling: 1500 feet AGL
Clouds: overcast cloud deck at 1500 feet AGL
Weather: no significant weather observed at this time

METAR text: EBBL 190025Z AUTO 24006KT 9999 BKN015/// 08/03 Q1017 WHT
Conditions at: EBBL (KLEINE-BROGEL(BA, BE) observed 0025 UTC 19 February 2019
Temperature: 8.0°C (46°F)
Dewpoint: 3.0°C (37°F) [RH = 71%]
Pressure (altimeter): 30.03 inches Hg (1017.0 mb)
Winds: from the WSW (240 degrees) at 7 MPH (6 knots; 3.1 m/s)
Visibility: 6 or more miles (10+ km)
Ceiling: 1500 feet AGL
Clouds: broken clouds at 1500 feet AGL
Weather: no significant weather observed at this time

METAR text: EBBL 182355Z AUTO 24007KT 9999 SCT021/// 07/03 Q1016 WHT
Conditions at: EBBL (KLEINE-BROGEL(BA, BE) observed 2355 UTC 18 February 2019
Temperature: 7.0°C (45°F)
Dewpoint: 3.0°C (37°F) [RH = 76%]
Pressure (altimeter): 30.00 inches Hg (1016.0 mb)
Winds: from the WSW (240 degrees) at 8 MPH (7 knots; 3.6 m/s)
Visibility: 6 or more miles (10+ km)
Ceiling: at least 12,000 feet AGL
Clouds: scattered clouds at 2100 feet AGL
Weather: no significant weather observed at this time

METAR text: EBBL 182354Z AUTO 23007KT 9999 SCT021/// 07/03 Q1016 WHT
Conditions at: EBBL (KLEINE-BROGEL(BA, BE) observed 2354 UTC 18 February 2019
Temperature: 7.0°C (45°F)
Dewpoint: 3.0°C (37°F) [RH = 76%]
Pressure (altimeter): 30.00 inches Hg (1016.0 mb)
Winds: from the SW (230 degrees) at 8 MPH (7 knots; 3.6 m/s)
Visibility: 6 or more miles (10+ km)
Ceiling: at least 12,000 feet AGL
Clouds: scattered clouds at 2100 feet AGL
Weather: no significant weather observed at this time

METAR text: EBBL 182325Z AUTO 23007KT 9999 BKN180/// 07/03 Q1016 BLU
Conditions at: EBBL (KLEINE-BROGEL(BA, BE) observed 2325 UTC 18 February 2019
Temperature: 7.0°C (45°F)
Dewpoint: 3.0°C (37°F) [RH = 76%]
Pressure (altimeter): 30.00 inches Hg (1016.0 mb)
Winds: from the SW (230 degrees) at 8 MPH (7 knots; 3.6 m/s)
Visibility: 6 or more miles (10+ km)
Ceiling: 18000 feet AGL
Clouds: broken clouds at 18000 feet AGL
Weather: no significant weather observed at this time

METAR text: EBBL 182255Z AUTO 23007KT 9999 BKN180/// 08/03 Q1016 BLU
Conditions at: EBBL (KLEINE-BROGEL(BA, BE) observed 2255 UTC 18 February 2019
Temperature: 8.0°C (46°F)
Dewpoint: 3.0°C (37°F) [RH = 71%]
Pressure (altimeter): 30.00 inches Hg (1016.0 mb)
Winds: from the SW (230 degrees) at 8 MPH (7 knots; 3.6 m/s)
Visibility: 6 or more miles (10+ km)
Ceiling: 18000 feet AGL
Clouds: broken clouds at 18000 feet AGL
Weather: no significant weather observed at this time

METAR text: EBBL 182225Z AUTO 21007KT 9999 BKN180/// 08/02 Q1016 BLU
Conditions at: EBBL (KLEINE-BROGEL(BA, BE) observed 2225 UTC 18 February 2019
Temperature: 8.0°C (46°F)
Dewpoint: 2.0°C (36°F) [RH = 66%]
Pressure (altimeter): 30.00 inches Hg (1016.0 mb)
Winds: from the SSW (210 degrees) at 8 MPH (7 knots; 3.6 m/s)
Visibility: 6 or more miles (10+ km)
Ceiling: 18000 feet AGL
Clouds: broken clouds at 18000 feet AGL
Weather: no significant weather observed at this time

METAR text: EBBL 182155Z AUTO 20005KT 9999 SCT180/// 08/02 Q1016 BLU
Conditions at: EBBL (KLEINE-BROGEL(BA, BE) observed 2155 UTC 18 February 2019
Temperature: 8.0°C (46°F)
Dewpoint: 2.0°C (36°F) [RH = 66%]
Pressure (altimeter): 30.00 inches Hg (1016.0 mb)
Winds: from the SSW (200 degrees) at 6 MPH (5 knots; 2.6 m/s)
Visibility: 6 or more miles (10+ km)
Ceiling: at least 12,000 feet AGL
Clouds: scattered clouds at 18000 feet AGL
Weather: no significant weather observed at this time

METAR text: EBBL 182125Z AUTO 21005KT 9999 FEW190/// BKN230/// 09/02 Q1016 BLU
Conditions at: EBBL (KLEINE-BROGEL(BA, BE) observed 2125 UTC 18 February 2019
Temperature: 9.0°C (48°F)
Dewpoint: 2.0°C (36°F) [RH = 61%]
Pressure (altimeter): 30.00 inches Hg (1016.0 mb)
Winds: from the SSW (210 degrees) at 6 MPH (5 knots; 2.6 m/s)
Visibility: 6 or more miles (10+ km)
Ceiling: 23000 feet AGL
Clouds: few clouds at 19000 feet AGL
broken clouds at 23000 feet AGL
Weather: no significant weather observed at this time

METAR text: EBBL 182055Z AUTO 21006KT 9999 BKN180/// 09/02 Q1016 BLU
Conditions at: EBBL (KLEINE-BROGEL(BA, BE) observed 2055 UTC 18 February 2019
Temperature: 9.0°C (48°F)
Dewpoint: 2.0°C (36°F) [RH = 61%]
Pressure (altimeter): 30.00 inches Hg (1016.0 mb)
Winds: from the SSW (210 degrees) at 7 MPH (6 knots; 3.1 m/s)
Visibility: 6 or more miles (10+ km)
Ceiling: 18000 feet AGL
Clouds: broken clouds at 18000 feet AGL
Weather: no significant weather observed at this time

METAR text: EBBL 182025Z AUTO 21006KT 9999 BKN190/// 09/02 Q1016 BLU
Conditions at: EBBL (KLEINE-BROGEL(BA, BE) observed 2025 UTC 18 February 2019
Temperature: 9.0°C (48°F)
Dewpoint: 2.0°C (36°F) [RH = 61%]
Pressure (altimeter): 30.00 inches Hg (1016.0 mb)
Winds: from the SSW (210 degrees) at 7 MPH (6 knots; 3.1 m/s)
Visibility: 6 or more miles (10+ km)
Ceiling: 19000 feet AGL
Clouds: broken clouds at 19000 feet AGL
Weather: no significant weather observed at this time

METAR text: EBBL 181955Z AUTO 21008KT 9999 BKN190/// 10/01 Q1016 BLU
Conditions at: EBBL (KLEINE-BROGEL(BA, BE) observed 1955 UTC 18 February 2019
Temperature: 10.0°C (50°F)
Dewpoint: 1.0°C (34°F) [RH = 53%]
Pressure (altimeter): 30.00 inches Hg (1016.0 mb)
Winds: from the SSW (210 degrees) at 9 MPH (8 knots; 4.1 m/s)
Visibility: 6 or more miles (10+ km)
Ceiling: 19000 feet AGL
Clouds: broken clouds at 19000 feet AGL
Weather: no significant weather observed at this time

METAR text: EBBL 181925Z AUTO 21007KT 9999 BKN200/// 10/01 Q1016 BLU
Conditions at: EBBL (KLEINE-BROGEL(BA, BE) observed 1925 UTC 18 February 2019
Temperature: 10.0°C (50°F)
Dewpoint: 1.0°C (34°F) [RH = 53%]
Pressure (altimeter): 30.00 inches Hg (1016.0 mb)
Winds: from the SSW (210 degrees) at 8 MPH (7 knots; 3.6 m/s)
Visibility: 6 or more miles (10+ km)
Ceiling: 20000 feet AGL
Clouds: broken clouds at 20000 feet AGL
Weather: no significant weather observed at this time

METAR text: EBBL 181855Z AUTO 21008KT 9999 BKN190/// 11/01 Q1016 BLU
Conditions at: EBBL (KLEINE-BROGEL(BA, BE) observed 1855 UTC 18 February 2019
Temperature: 11.0°C (52°F)
Dewpoint: 1.0°C (34°F) [RH = 50%]
Pressure (altimeter): 30.00 inches Hg (1016.0 mb)
Winds: from the SSW (210 degrees) at 9 MPH (8 knots; 4.1 m/s)
Visibility: 6 or more miles (10+ km)
Ceiling: 19000 feet AGL
Clouds: broken clouds at 19000 feet AGL
Weather: no significant weather observed at this time

METAR text: EBBL 181825Z AUTO 20006KT 9999 BKN200/// 11/02 Q1016 BLU
Conditions at: EBBL (KLEINE-BROGEL(BA, BE) observed 1825 UTC 18 February 2019
Temperature: 11.0°C (52°F)
Dewpoint: 2.0°C (36°F) [RH = 54%]
Pressure (altimeter): 30.00 inches Hg (1016.0 mb)
Winds: from the SSW (200 degrees) at 7 MPH (6 knots; 3.1 m/s)
Visibility: 6 or more miles (10+ km)
Ceiling: 20000 feet AGL
Clouds: broken clouds at 20000 feet AGL
Weather: no significant weather observed at this time

METAR text: EBBL 181755Z AUTO 20004KT 9999 FEW200/// 11/01 Q1015 BLU
Conditions at: EBBL (KLEINE-BROGEL(BA, BE) observed 1755 UTC 18 February 2019
Temperature: 11.0°C (52°F)
Dewpoint: 1.0°C (34°F) [RH = 50%]
Pressure (altimeter): 29.97 inches Hg (1015.0 mb)
Winds: from the SSW (200 degrees) at 5 MPH (4 knots; 2.1 m/s)
Visibility: 6 or more miles (10+ km)
Ceiling: at least 12,000 feet AGL
Clouds: few clouds at 20000 feet AGL
Weather: no significant weather observed at this time

METAR text: EBBL 181725Z AUTO VRB02KT 9999 FEW210/// 12/01 Q1015 BLU
Conditions at: EBBL (KLEINE-BROGEL(BA, BE) observed 1725 UTC 18 February 2019
Temperature: 12.0°C (54°F)
Dewpoint: 1.0°C (34°F) [RH = 47%]
Pressure (altimeter): 29.97 inches Hg (1015.0 mb)
Winds: variable direction winds at 2 MPH (2 knots; 1.0 m/s)
Visibility: 6 or more miles (10+ km)
Ceiling: at least 12,000 feet AGL
Clouds: few clouds at 21000 feet AGL
Weather: no significant weather observed at this time

METAR text: EBBL 181655Z AUTO 23003KT 9999 NCD 12/01 Q1015 BLU
Conditions at: EBBL (KLEINE-BROGEL(BA, BE) observed 1655 UTC 18 February 2019
Temperature: 12.0°C (54°F)
Dewpoint: 1.0°C (34°F) [RH = 47%]
Pressure (altimeter): 29.97 inches Hg (1015.0 mb)
Winds: from the SW (230 degrees) at 3 MPH (3 knots; 1.5 m/s)
Visibility: 6 or more miles (10+ km)
Ceiling: at least 12,000 feet AGL
Clouds: sky clear below 12,000 feet AGL
Weather: no significant weather observed at this time

METAR text: EBBL 181625Z AUTO 23004KT 9999 BKN220/// 14/01 Q1015 BLU
Conditions at: EBBL (KLEINE-BROGEL(BA, BE) observed 1625 UTC 18 February 2019
Temperature: 14.0°C (57°F)
Dewpoint: 1.0°C (34°F) [RH = 41%]
Pressure (altimeter): 29.97 inches Hg (1015.0 mb)
Winds: from the SW (230 degrees) at 5 MPH (4 knots; 2.1 m/s)
Visibility: 6 or more miles (10+ km)
Ceiling: 22000 feet AGL
Clouds: broken clouds at 22000 feet AGL
Weather: no significant weather observed at this time

METAR text: EBBL 181555Z AUTO 22005KT 9999 FEW200/// 15/00 Q1015 BLU
Conditions at: EBBL (KLEINE-BROGEL(BA, BE) observed 1555 UTC 18 February 2019
Temperature: 15.0°C (59°F)
Dewpoint: 0.0°C (32°F) [RH = 36%]
Pressure (altimeter): 29.97 inches Hg (1015.0 mb)
Winds: from the SW (220 degrees) at 6 MPH (5 knots; 2.6 m/s)
Visibility: 6 or more miles (10+ km)
Ceiling: at least 12,000 feet AGL
Clouds: few clouds at 20000 feet AGL
Weather: no significant weather observed at this time

METAR text: EBBL 181525Z 21006KT 9999 SCT260 16/01 Q1015 BLU BLU
Conditions at: EBBL (KLEINE-BROGEL(BA, BE) observed 1525 UTC 18 February 2019
Temperature: 16.0°C (61°F)
Dewpoint: 1.0°C (34°F) [RH = 36%]
Pressure (altimeter): 29.97 inches Hg (1015.0 mb)
Winds: from the SSW (210 degrees) at 7 MPH (6 knots; 3.1 m/s)
Visibility: 6 or more miles (10+ km)
Ceiling: at least 12,000 feet AGL
Clouds: scattered clouds at 26000 feet AGL
Weather: no significant weather observed at this time

METAR text: EBBL 181455Z 21007KT 9999 SCT260 16/00 Q1016 BLU BLU
Conditions at: EBBL (KLEINE-BROGEL(BA, BE) observed 1455 UTC 18 February 2019
Temperature: 16.0°C (61°F)
Dewpoint: 0.0°C (32°F) [RH = 34%]
Pressure (altimeter): 30.00 inches Hg (1016.0 mb)
Winds: from the SSW (210 degrees) at 8 MPH (7 knots; 3.6 m/s)
Visibility: 6 or more miles (10+ km)
Ceiling: at least 12,000 feet AGL
Clouds: scattered clouds at 26000 feet AGL
Weather: no significant weather observed at this time

METAR text: EBBL 181425Z 20005KT 9999 SCT260 17/00 Q1015 BLU BLU
Conditions at: EBBL (KLEINE-BROGEL(BA, BE) observed 1425 UTC 18 February 2019
Temperature: 17.0°C (63°F)
Dewpoint: 0.0°C (32°F) [RH = 32%]
Pressure (altimeter): 29.97 inches Hg (1015.0 mb)
Winds: from the SSW (200 degrees) at 6 MPH (5 knots; 2.6 m/s)
Visibility: 6 or more miles (10+ km)
Ceiling: at least 12,000 feet AGL
Clouds: scattered clouds at 26000 feet AGL
Weather: no significant weather observed at this time

METAR text: EBBL 181255Z 21005KT 9999 SCT260 16/M00 Q1024 BLU BLU
Conditions at: EBBL (KLEINE-BROGEL(BA, BE) observed 1255 UTC 18 February 2019
Temperature: 16.0°C (61°F)
Dewpoint: 0.0°C (32°F) [RH = 34%]
Pressure (altimeter): 30.24 inches Hg (1024.0 mb)
Winds: from the SSW (210 degrees) at 6 MPH (5 knots; 2.6 m/s)
Visibility: 6 or more miles (10+ km)
Ceiling: at least 12,000 feet AGL
Clouds: scattered clouds at 26000 feet AGL
Weather: no significant weather observed at this time

METAR text: EBBL 181225Z 21005KT 9999 SCT260 15/M00 Q1024 BLU BLU
Conditions at: EBBL (KLEINE-BROGEL(BA, BE) observed 1225 UTC 18 February 2019
Temperature: 15.0°C (59°F)
Dewpoint: 0.0°C (32°F) [RH = 36%]
Pressure (altimeter): 30.24 inches Hg (1024.0 mb)
Winds: from the SSW (210 degrees) at 6 MPH (5 knots; 2.6 m/s)
Visibility: 6 or more miles (10+ km)
Ceiling: at least 12,000 feet AGL
Clouds: scattered clouds at 26000 feet AGL
Weather: no significant weather observed at this time

METAR text: EBBL 181155Z 21005KT 9999 SCT260 15/M01 Q1024 BLU BLU
Conditions at: EBBL (KLEINE-BROGEL(BA, BE) observed 1155 UTC 18 February 2019
Temperature: 15.0°C (59°F)
Dewpoint: -1.0°C (30°F) [RH = 33%]
Pressure (altimeter): 30.24 inches Hg (1024.0 mb)
Winds: from the SSW (210 degrees) at 6 MPH (5 knots; 2.6 m/s)
Visibility: 6 or more miles (10+ km)
Ceiling: at least 12,000 feet AGL
Clouds: scattered clouds at 26000 feet AGL
Weather: no significant weather observed at this time

METAR text: EBBL 181125Z 21005KT 9999 FEW260 14/M02 Q1024 BLU BLU
Conditions at: EBBL (KLEINE-BROGEL(BA, BE) observed 1125 UTC 18 February 2019
Temperature: 14.0°C (57°F)
Dewpoint: -2.0°C (28°F) [RH = 33%]
Pressure (altimeter): 30.24 inches Hg (1024.0 mb)
Winds: from the SSW (210 degrees) at 6 MPH (5 knots; 2.6 m/s)
Visibility: 6 or more miles (10+ km)
Ceiling: at least 12,000 feet AGL
Clouds: few clouds at 26000 feet AGL
Weather: no significant weather observed at this time

METAR text: EBBL 181055Z 21005KT 9999 FEW260 14/M02 Q1024 BLU BLU
Conditions at: EBBL (KLEINE-BROGEL(BA, BE) observed 1055 UTC 18 February 2019
Temperature: 14.0°C (57°F)
Dewpoint: -2.0°C (28°F) [RH = 33%]
Pressure (altimeter): 30.24 inches Hg (1024.0 mb)
Winds: from the SSW (210 degrees) at 6 MPH (5 knots; 2.6 m/s)
Visibility: 6 or more miles (10+ km)
Ceiling: at least 12,000 feet AGL
Clouds: few clouds at 26000 feet AGL
Weather: no significant weather observed at this time

METAR text: EBBL 181025Z 21006KT 9999 FEW260 13/M02 Q1024 BLU BLU
Conditions at: EBBL (KLEINE-BROGEL(BA, BE) observed 1025 UTC 18 February 2019
Temperature: 13.0°C (55°F)
Dewpoint: -2.0°C (28°F) [RH = 35%]
Pressure (altimeter): 30.24 inches Hg (1024.0 mb)
Winds: from the SSW (210 degrees) at 7 MPH (6 knots; 3.1 m/s)
Visibility: 6 or more miles (10+ km)
Ceiling: at least 12,000 feet AGL
Clouds: few clouds at 26000 feet AGL
Weather: no significant weather observed at this time

METAR text: EBBL 180955Z 21006KT 9999 FEW260 14/M02 Q1024 BLU BLU
Conditions at: EBBL (KLEINE-BROGEL(BA, BE) observed 0955 UTC 18 February 2019
Temperature: 14.0°C (57°F)
Dewpoint: -2.0°C (28°F) [RH = 33%]
Pressure (altimeter): 30.24 inches Hg (1024.0 mb)
Winds: from the SSW (210 degrees) at 7 MPH (6 knots; 3.1 m/s)
Visibility: 6 or more miles (10+ km)
Ceiling: at least 12,000 feet AGL
Clouds: few clouds at 26000 feet AGL
Weather: no significant weather observed at this time

METAR text: EBBL 180925Z 21006KT 9999 FEW260 11/M04 Q1024 BLU BLU
Conditions at: EBBL (KLEINE-BROGEL(BA, BE) observed 0925 UTC 18 February 2019
Temperature: 11.0°C (52°F)
Dewpoint: -4.0°C (25°F) [RH = 35%]
Pressure (altimeter): 30.24 inches Hg (1024.0 mb)
Winds: from the SSW (210 degrees) at 7 MPH (6 knots; 3.1 m/s)
Visibility: 6 or more miles (10+ km)
Ceiling: at least 12,000 feet AGL
Clouds: few clouds at 26000 feet AGL
Weather: no significant weather observed at this time

METAR text: EBBL 180855Z 21006KT 9999 FEW260 11/M04 Q1024 BLU BLU
Conditions at: EBBL (KLEINE-BROGEL(BA, BE) observed 0855 UTC 18 February 2019
Temperature: 11.0°C (52°F)
Dewpoint: -4.0°C (25°F) [RH = 35%]
Pressure (altimeter): 30.24 inches Hg (1024.0 mb)
Winds: from the SSW (210 degrees) at 7 MPH (6 knots; 3.1 m/s)
Visibility: 6 or more miles (10+ km)
Ceiling: at least 12,000 feet AGL
Clouds: few clouds at 26000 feet AGL
Weather: no significant weather observed at this time

METAR text: EBBL 180825Z 21006KT 9999 FEW260 10/M05 Q1024 BLU BLU
Conditions at: EBBL (KLEINE-BROGEL(BA, BE) observed 0825 UTC 18 February 2019
Temperature: 10.0°C (50°F)
Dewpoint: -5.0°C (23°F) [RH = 34%]
Pressure (altimeter): 30.24 inches Hg (1024.0 mb)
Winds: from the SSW (210 degrees) at 7 MPH (6 knots; 3.1 m/s)
Visibility: 6 or more miles (10+ km)
Ceiling: at least 12,000 feet AGL
Clouds: few clouds at 26000 feet AGL
Weather: no significant weather observed at this time

METAR text: EBBL 180755Z 21006KT 9999 FEW260 09/M06 Q1024 BLU BLU
Conditions at: EBBL (KLEINE-BROGEL(BA, BE) observed 0755 UTC 18 February 2019
Temperature: 9.0°C (48°F)
Dewpoint: -6.0°C (21°F) [RH = 34%]
Pressure (altimeter): 30.24 inches Hg (1024.0 mb)
Winds: from the SSW (210 degrees) at 7 MPH (6 knots; 3.1 m/s)
Visibility: 6 or more miles (10+ km)
Ceiling: at least 12,000 feet AGL
Clouds: few clouds at 26000 feet AGL
Weather: no significant weather observed at this time

METAR text: EBBL 180725Z 21006KT 9999 SKC 07/M08 Q1024 BLU BLU
Conditions at: EBBL (KLEINE-BROGEL(BA, BE) observed 0725 UTC 18 February 2019
Temperature: 7.0°C (45°F)
Dewpoint: -8.0°C (18°F) [RH = 33%]
Pressure (altimeter): 30.24 inches Hg (1024.0 mb)
Winds: from the SSW (210 degrees) at 7 MPH (6 knots; 3.1 m/s)
Visibility: 6 or more miles (10+ km)
Ceiling: at least 12,000 feet AGL
Clouds: clear skies
Weather: no significant weather observed at this time

METAR text: EBBL 180655Z 21006KT 9999 SKC 06/02 Q1024 BLU BLU
Conditions at: EBBL (KLEINE-BROGEL(BA, BE) observed 0655 UTC 18 February 2019
Temperature: 6.0°C (43°F)
Dewpoint: 2.0°C (36°F) [RH = 75%]
Pressure (altimeter): 30.24 inches Hg (1024.0 mb)
Winds: from the SSW (210 degrees) at 7 MPH (6 knots; 3.1 m/s)
Visibility: 6 or more miles (10+ km)
Ceiling: at least 12,000 feet AGL
Clouds: clear skies
Weather: no significant weather observed at this time

METAR text: EBBL 180636Z 21006KT 9999 SKC 04/00 Q1024 BLU BLU
Conditions at: EBBL (KLEINE-BROGEL(BA, BE) observed 0636 UTC 18 February 2019
Temperature: 4.0°C (39°F)
Dewpoint: 0.0°C (32°F) [RH = 75%]
Pressure (altimeter): 30.24 inches Hg (1024.0 mb)
Winds: from the SSW (210 degrees) at 7 MPH (6 knots; 3.1 m/s)
Visibility: 6 or more miles (10+ km)
Ceiling: at least 12,000 feet AGL
Clouds: clear skies
Weather: no significant weather observed at this time

Forecast for: EBBL (KLEINE-BROGEL(BA, BE)
Text: TAF EBBL 190841Z 1910/1919 24010KT 9999 FEW020
Forecast period: 1000 to 1100 UTC 19 February 2019
Forecast type: FROM: standard forecast or significant change
Winds: from the WSW (240 degrees) at 12 MPH (10 knots; 5.1 m/s)
Visibility: 6 or more miles 10+ km)
Ceiling: at least 12,000 feet AGL
Clouds: few clouds at 2000 feet AGL
Weather: no significant weather forecast for this period
Text: BECMG 1911/1913 SCT030
Forecast period: 1100 to 1900 UTC 19 February 2019
Forecast type: BECOMING: Conditions expected to become as follows by 1300 UTC 19 February 2019
Winds: from the WSW (240 degrees) at 12 MPH (10 knots; 5.1 m/s)
Visibility: 6 or more miles 10+ km)
Ceiling: at least 12,000 feet AGL
Clouds: scattered clouds at 3000 feet AGL
Weather: no significant weather forecast for this period